createdAt,value
2018-05-03T00:00:47.163Z,13.42
2018-05-03T00:03:17.104Z,13.48
2018-05-03T00:05:46.611Z,13.47
2018-05-03T00:08:16.143Z,13.45
2018-05-03T00:10:45.668Z,13.42
2018-05-03T00:13:15.191Z,13.37
2018-05-03T00:15:44.715Z,13.27
2018-05-03T00:18:14.707Z,13.48
2018-05-03T00:20:44.654Z,13.40
2018-05-03T00:23:14.641Z,13.41
2018-05-03T00:25:44.171Z,13.30
2018-05-03T00:28:14.097Z,13.23
2018-05-03T00:30:44.023Z,13.22
2018-05-03T00:33:13.561Z,13.20
2018-05-03T00:35:43.073Z,13.21
2018-05-03T00:38:12.587Z,13.36
2018-05-03T00:40:42.155Z,13.38
2018-05-03T00:43:11.735Z,13.33
2018-05-03T00:45:41.655Z,13.28
2018-05-03T00:48:11.600Z,13.24
2018-05-03T00:50:41.133Z,13.31
2018-05-03T00:53:10.657Z,13.26
2018-05-03T00:55:40.199Z,13.36
2018-05-03T00:58:09.756Z,13.41
2018-05-03T01:00:39.139Z,13.46
2018-05-03T01:03:08.343Z,13.42
2018-05-03T01:05:37.905Z,13.46
2018-05-03T01:08:07.897Z,13.40
2018-05-03T01:10:37.407Z,13.17
2018-05-03T01:13:06.947Z,13.27
2018-05-03T01:15:36.504Z,13.29
2018-05-03T01:18:06.030Z,13.34
2018-05-03T01:20:35.338Z,13.21
2018-05-03T01:23:05.291Z,13.38
2018-05-03T01:25:34.814Z,13.40
2018-05-03T01:28:04.339Z,13.50
2018-05-03T01:30:34.081Z,13.35
2018-05-03T01:33:04.172Z,13.24
2018-05-03T01:35:50.321Z,13.29
2018-05-03T01:38:19.870Z,13.35
2018-05-03T01:40:49.548Z,13.30
2018-05-03T01:43:19.096Z,13.38
2018-05-03T01:45:48.633Z,13.29
2018-05-03T01:48:18.569Z,13.18
2018-05-03T01:50:48.116Z,13.14
2018-05-03T01:53:17.651Z,13.22
2018-05-03T01:55:47.663Z,13.29
2018-05-03T01:58:17.629Z,13.26
2018-05-03T02:00:47.157Z,13.26
2018-05-03T02:03:16.689Z,13.36
2018-05-03T02:05:46.230Z,13.29
2018-05-03T02:08:15.854Z,13.28
2018-05-03T02:10:45.456Z,13.22
2018-05-03T02:13:14.979Z,13.18
2018-05-03T02:15:44.495Z,13.26
2018-05-03T02:18:14.032Z,13.13
2018-05-03T02:20:43.955Z,13.19
2018-05-03T02:23:13.964Z,13.17
2018-05-03T02:25:43.907Z,13.16
2018-05-03T02:28:13.481Z,13.09
2018-05-03T02:30:43.034Z,13.05
2018-05-03T02:33:12.596Z,13.09
2018-05-03T02:35:42.548Z,13.09
2018-05-03T02:38:12.096Z,12.99
2018-05-03T02:40:41.620Z,13.06
2018-05-03T02:43:11.127Z,13.17
2018-05-03T02:45:40.811Z,13.15
2018-05-03T02:48:10.441Z,13.18
2018-05-03T02:50:39.950Z,13.08
2018-05-03T02:53:09.522Z,12.97
2018-05-03T02:55:39.050Z,12.94
2018-05-03T02:58:25.548Z,13.04
2018-05-03T03:01:17.194Z,13.01
2018-05-03T03:04:09.247Z,13.07
2018-05-03T03:07:01.653Z,12.94
2018-05-03T03:13:28.893Z,13.07
2018-05-03T03:16:20.832Z,12.95
2018-05-03T03:19:12.664Z,12.73
2018-05-03T03:22:04.648Z,12.68
2018-05-03T03:24:48.428Z,12.56
2018-05-03T03:27:40.522Z,12.71
2018-05-03T03:30:32.199Z,12.81
2018-05-03T03:33:18.721Z,12.86
2018-05-03T03:36:14.089Z,12.91
2018-05-03T03:39:00.777Z,12.84
2018-05-03T03:41:43.604Z,12.80
2018-05-03T03:44:30.253Z,12.72
2018-05-03T03:46:59.830Z,12.44
2018-05-03T03:49:29.364Z,12.49
2018-05-03T03:51:58.919Z,12.35
2018-05-03T03:54:28.452Z,12.22
2018-05-03T03:56:57.978Z,11.94
2018-05-03T03:59:27.518Z,11.79
2018-05-03T04:01:57.049Z,11.58
2018-05-03T04:04:26.980Z,11.49
2018-05-03T04:06:56.894Z,11.46
2018-05-03T04:09:26.813Z,11.45
2018-05-03T04:11:56.803Z,11.45
2018-05-03T04:14:26.522Z,11.56
2018-05-03T04:16:56.041Z,11.57
2018-05-03T04:19:43.000Z,11.85
2018-05-03T04:22:29.330Z,12.02
2018-05-03T04:25:15.909Z,12.03
2018-05-03T04:27:45.457Z,12.30
2018-05-03T04:30:14.972Z,12.29
2018-05-03T04:32:44.892Z,12.38
2018-05-03T04:35:14.805Z,12.35
2018-05-03T04:37:44.738Z,12.20
2018-05-03T04:40:14.267Z,12.16
2018-05-03T04:42:43.820Z,12.14
2018-05-03T04:45:13.773Z,12.03
2018-05-03T04:47:43.285Z,12.11
2018-05-03T04:50:13.302Z,11.96
2018-05-03T04:52:43.397Z,12.09
2018-05-03T04:55:13.347Z,12.11
2018-05-03T04:57:42.881Z,11.95
2018-05-03T05:00:12.455Z,11.80
2018-05-03T05:02:41.989Z,11.69
2018-05-03T05:05:11.508Z,11.60
2018-05-03T05:07:41.083Z,11.52
2018-05-03T05:10:10.813Z,11.51
2018-05-03T05:12:40.356Z,11.65
2018-05-03T05:15:10.329Z,11.48
2018-05-03T05:17:39.960Z,11.55
2018-05-03T05:20:09.359Z,11.43
2018-05-03T05:22:38.881Z,11.35
2018-05-03T05:25:09.221Z,11.34
2018-05-03T05:27:40.053Z,11.33
2018-05-03T05:30:09.993Z,11.33
2018-05-03T05:32:39.519Z,11.37
2018-05-03T05:35:08.859Z,11.43
2018-05-03T05:37:38.721Z,11.43
2018-05-03T05:40:08.025Z,11.53
2018-05-03T05:42:37.333Z,11.50
2018-05-03T05:45:06.901Z,11.60
2018-05-03T05:47:36.955Z,11.62
2018-05-03T05:50:06.163Z,11.65
2018-05-03T05:52:35.537Z,11.76
2018-05-03T05:55:05.086Z,11.87
2018-05-03T05:57:34.620Z,11.91
2018-05-03T06:00:04.078Z,11.83
2018-05-03T06:02:33.631Z,11.80
2018-05-03T06:05:03.255Z,11.81
2018-05-03T06:07:33.222Z,11.82
2018-05-03T06:10:02.765Z,11.82
2018-05-03T06:12:32.303Z,11.77
2018-05-03T06:15:02.765Z,11.70
2018-05-03T06:17:32.303Z,11.71
2018-05-03T06:20:02.633Z,11.72
2018-05-03T06:22:32.289Z,11.78
2018-05-03T06:25:02.326Z,11.79
2018-05-03T06:27:51.405Z,11.79
2018-05-03T06:30:20.921Z,11.72
2018-05-03T06:32:50.476Z,11.65
2018-05-03T06:35:20.022Z,11.64
2018-05-03T06:37:49.549Z,11.70
2018-05-03T06:40:19.056Z,11.71
2018-05-03T06:42:49.000Z,11.73
2018-05-03T06:45:18.794Z,11.76
2018-05-03T06:47:48.527Z,11.83
2018-05-03T06:50:18.048Z,11.87
2018-05-03T06:52:47.813Z,11.89
2018-05-03T06:55:17.715Z,11.87
2018-05-03T06:57:47.248Z,11.89
2018-05-03T07:00:17.202Z,11.97
2018-05-03T07:02:46.727Z,12.12
2018-05-03T07:05:16.282Z,12.09
2018-05-03T07:07:45.805Z,12.11
2018-05-03T07:10:15.331Z,12.10
2018-05-03T07:12:44.928Z,12.05
2018-05-03T07:15:14.464Z,12.00
2018-05-03T07:17:44.008Z,12.00
2018-05-03T07:20:13.932Z,12.01
2018-05-03T07:22:43.887Z,12.08
2018-05-03T07:25:13.446Z,12.20
2018-05-03T07:27:43.353Z,12.21
2018-05-03T07:30:13.316Z,12.24
2018-05-03T07:32:43.418Z,12.23
2018-05-03T07:35:12.780Z,12.24
2018-05-03T07:37:42.318Z,12.23
2018-05-03T07:40:11.844Z,12.25
2018-05-03T07:42:41.360Z,12.28
2018-05-03T07:45:10.965Z,12.45
2018-05-03T07:47:40.559Z,12.52
2018-05-03T07:50:10.120Z,12.51
2018-05-03T07:52:39.664Z,12.44
2018-05-03T07:55:09.166Z,12.52
2018-05-03T07:57:38.713Z,12.56
2018-05-03T08:00:08.246Z,12.58
2018-05-03T08:02:37.768Z,12.57
2018-05-03T08:05:07.365Z,12.61
2018-05-03T08:07:37.278Z,12.76
2018-05-03T08:10:07.247Z,12.73
2018-05-03T08:12:36.778Z,12.67
2018-05-03T08:15:06.471Z,12.71
2018-05-03T08:17:36.019Z,12.78
2018-05-03T08:20:05.209Z,12.77
2018-05-03T08:22:34.726Z,12.85
2018-05-03T08:25:04.412Z,12.80
2018-05-03T08:27:33.920Z,12.83
2018-05-03T08:30:03.470Z,12.87
2018-05-03T08:32:32.986Z,12.90
2018-05-03T08:35:02.507Z,12.98
2018-05-03T08:37:32.018Z,13.04
2018-05-03T08:40:01.554Z,13.02
2018-05-03T08:42:31.265Z,13.07
2018-05-03T08:45:00.780Z,13.03
2018-05-03T08:47:30.300Z,13.16
2018-05-03T08:50:00.296Z,13.20
2018-05-03T08:52:30.227Z,13.26
2018-05-03T08:55:00.143Z,13.29
2018-05-03T08:57:30.051Z,13.27
2018-05-03T08:59:59.984Z,13.24
2018-05-03T09:02:29.913Z,13.38
2018-05-03T09:04:59.513Z,13.48
2018-05-03T09:07:29.044Z,13.41
2018-05-03T09:09:58.552Z,13.55
2018-05-03T09:12:28.066Z,13.64
2018-05-03T09:14:57.828Z,13.78
2018-05-03T09:17:27.763Z,13.92
2018-05-03T09:19:57.307Z,13.83
2018-05-03T09:22:26.911Z,13.84
2018-05-03T09:24:56.579Z,13.97
2018-05-03T09:27:25.874Z,13.86
2018-05-03T09:29:55.798Z,13.86
2018-05-03T09:32:25.344Z,14.13
2018-05-03T09:34:54.922Z,14.39
2018-05-03T09:37:24.434Z,14.49
2018-05-03T09:39:53.968Z,14.35
2018-05-03T09:43:26.590Z,14.19
2018-05-03T09:45:56.516Z,14.39
2018-05-03T09:48:26.468Z,14.73
2018-05-03T09:50:56.089Z,14.72
2018-05-03T09:53:25.630Z,14.62
2018-05-03T09:55:55.178Z,14.92
2018-05-03T09:58:24.726Z,15.20
2018-05-03T10:00:54.244Z,15.01
2018-05-03T10:03:23.798Z,14.93
2018-05-03T10:05:53.698Z,14.93
2018-05-03T10:08:23.266Z,14.84
2018-05-03T10:10:52.792Z,15.08
2018-05-03T10:13:22.757Z,14.96
2018-05-03T10:15:52.414Z,15.06
2018-05-03T10:18:22.390Z,15.12
2018-05-03T10:20:51.934Z,15.26
2018-05-03T10:23:21.472Z,15.20
2018-05-03T10:25:51.026Z,14.96
2018-05-03T10:28:20.568Z,15.22
2018-05-03T10:30:50.120Z,15.32
2018-05-03T10:33:19.651Z,15.62
2018-05-03T10:35:51.119Z,15.52
2018-05-03T10:38:20.706Z,15.53
2018-05-03T10:40:50.234Z,15.67
2018-05-03T10:43:20.160Z,15.48
2018-05-03T10:45:50.101Z,15.36
2018-05-03T10:48:19.710Z,15.25
2018-05-03T10:50:49.306Z,15.03
2018-05-03T10:53:18.857Z,15.09
2018-05-03T10:55:48.366Z,15.09
2018-05-03T10:58:17.918Z,15.06
2018-05-03T11:00:48.095Z,15.40
2018-05-03T11:03:19.070Z,15.41
2018-05-03T11:05:48.763Z,16.13
2018-05-03T11:08:18.068Z,16.22
2018-05-03T11:10:48.007Z,16.51
2018-05-03T11:13:17.573Z,16.73
2018-05-03T11:15:47.285Z,16.21
2018-05-03T11:18:16.809Z,16.64
2018-05-03T11:20:46.360Z,16.71
2018-05-03T11:23:15.883Z,16.67
2018-05-03T11:25:45.394Z,16.86
2018-05-03T11:28:14.923Z,16.77
2018-05-03T11:30:44.463Z,16.42
2018-05-03T11:33:14.004Z,16.39
2018-05-03T11:35:43.516Z,16.08
2018-05-03T11:38:13.064Z,16.20
2018-05-03T11:40:43.060Z,16.42
2018-05-03T11:43:12.574Z,16.60
2018-05-03T11:45:42.104Z,16.41
2018-05-03T11:48:12.035Z,16.34
2018-05-03T11:50:42.157Z,16.70
2018-05-03T11:53:11.682Z,16.87
2018-05-03T11:55:41.323Z,16.58
2018-05-03T11:58:10.622Z,16.38
2018-05-03T12:00:40.131Z,16.36
2018-05-03T12:03:10.450Z,16.25
2018-05-03T12:05:40.006Z,16.21
2018-05-03T12:08:10.208Z,16.61
2018-05-03T12:10:40.196Z,16.86
2018-05-03T12:13:09.776Z,16.52
2018-05-03T12:15:39.312Z,16.49
2018-05-03T12:18:08.855Z,16.61
2018-05-03T12:20:38.378Z,16.59
2018-05-03T12:23:07.912Z,16.34
2018-05-03T12:25:37.457Z,16.36
2018-05-03T12:28:07.386Z,16.52
2018-05-03T12:30:37.328Z,16.62
2018-05-03T12:33:06.842Z,16.77
2018-05-03T12:35:36.378Z,16.76
2018-05-03T12:38:05.906Z,16.76
2018-05-03T12:40:35.861Z,16.74
2018-05-03T12:43:05.523Z,16.87
2018-05-03T12:45:35.452Z,16.79
2018-05-03T12:48:05.411Z,16.91
2018-05-03T12:50:34.928Z,17.24
2018-05-03T12:53:04.456Z,17.24
2018-05-03T12:55:34.001Z,17.10
2018-05-03T12:58:03.538Z,16.90
2018-05-03T13:00:33.136Z,16.87
2018-05-03T13:03:02.656Z,16.79
2018-05-03T13:05:32.184Z,16.85
2018-05-03T13:08:01.691Z,16.91
2018-05-03T13:10:31.229Z,16.94
2018-05-03T13:13:01.020Z,17.09
2018-05-03T13:15:30.591Z,17.19
2018-05-03T13:18:00.184Z,17.21
2018-05-03T13:20:29.716Z,17.40
2018-05-03T13:22:59.238Z,17.53
2018-05-03T13:25:28.793Z,17.43
2018-05-03T13:27:59.152Z,17.88
2018-05-03T13:30:29.216Z,17.96
2018-05-03T13:32:59.148Z,17.52
2018-05-03T13:35:28.776Z,17.68
2018-05-03T13:37:58.596Z,17.56
2018-05-03T13:40:27.635Z,17.31
2018-05-03T13:42:57.969Z,17.29
2018-05-03T13:45:27.450Z,17.43
2018-05-03T13:47:57.303Z,17.34
2018-05-03T13:50:27.331Z,17.56
2018-05-03T13:52:56.875Z,17.41
2018-05-03T13:55:26.888Z,17.53
2018-05-03T13:57:56.971Z,17.54
2018-05-03T14:00:27.650Z,17.57
2018-05-03T14:02:59.474Z,17.52
2018-05-03T14:05:29.051Z,17.68
2018-05-03T14:07:58.792Z,17.71
2018-05-03T14:10:28.374Z,17.71
2018-05-03T14:12:58.334Z,17.61
2018-05-03T14:15:28.419Z,17.60
2018-05-03T14:17:58.407Z,17.51
2018-05-03T14:20:27.727Z,17.56
2018-05-03T14:22:57.630Z,17.54
2018-05-03T14:25:27.599Z,17.51
2018-05-03T14:27:57.171Z,17.38
2018-05-03T14:30:27.102Z,17.30
2018-05-03T14:32:56.636Z,17.23
2018-05-03T14:35:26.155Z,17.22
2018-05-03T14:37:55.753Z,17.17
2018-05-03T14:40:25.267Z,17.25
2018-05-03T14:42:54.817Z,17.32
2018-05-03T14:45:24.370Z,17.21
2018-05-03T14:47:53.923Z,17.25
2018-05-03T14:50:24.147Z,17.18
2018-05-03T14:52:54.234Z,17.21
2018-05-03T14:55:23.808Z,17.09
2018-05-03T14:57:53.353Z,17.09
2018-05-03T15:00:23.100Z,17.12
2018-05-03T15:02:53.104Z,17.13
2018-05-03T15:05:23.123Z,17.15
2018-05-03T15:07:53.155Z,17.20
2018-05-03T15:10:22.689Z,17.23
2018-05-03T15:12:52.823Z,17.29
2018-05-03T15:15:22.349Z,17.41
2018-05-03T15:17:51.965Z,17.50
2018-05-03T15:20:21.573Z,17.45
2018-05-03T15:22:51.099Z,17.46
2018-05-03T15:25:21.037Z,17.54
2018-05-03T15:27:50.315Z,17.52
2018-05-03T15:30:20.303Z,17.57
2018-05-03T15:32:49.823Z,17.45
2018-05-03T15:35:19.173Z,17.40
2018-05-03T15:37:48.544Z,17.35
2018-05-03T15:40:18.267Z,17.30
2018-05-03T15:42:48.467Z,17.26
2018-05-03T15:45:17.999Z,17.30
2018-05-03T15:47:47.545Z,17.28
2018-05-03T15:50:17.182Z,17.28
2018-05-03T15:52:47.030Z,17.22
2018-05-03T15:55:17.260Z,17.23
2018-05-03T15:57:46.785Z,17.20
2018-05-03T16:00:16.331Z,17.17
2018-05-03T16:02:45.633Z,17.20
2018-05-03T16:05:16.382Z,17.20
2018-05-03T16:07:46.304Z,17.17
2018-05-03T16:10:16.233Z,17.23
2018-05-03T16:12:45.795Z,17.24
2018-05-03T16:15:15.334Z,17.21
2018-05-03T16:17:44.858Z,17.21
2018-05-03T16:20:14.375Z,17.26
2018-05-03T16:22:43.905Z,17.19
2018-05-03T16:25:13.437Z,17.14
2018-05-03T16:27:42.776Z,17.18
2018-05-03T16:30:12.287Z,17.18
2018-05-03T16:32:41.820Z,17.18
2018-05-03T16:35:11.378Z,17.20
2018-05-03T16:37:41.300Z,17.14
2018-05-03T16:40:10.827Z,17.13
2018-05-03T16:42:40.366Z,17.12
2018-05-03T16:45:09.917Z,17.18
2018-05-03T16:47:39.856Z,17.08
2018-05-03T16:50:09.400Z,16.97
2018-05-03T16:52:38.994Z,16.90
2018-05-03T16:55:09.086Z,16.85
2018-05-03T16:57:38.617Z,16.84
2018-05-03T17:00:08.145Z,16.72
2018-05-03T17:02:37.696Z,16.64
2018-05-03T17:05:07.277Z,16.64
2018-05-03T17:07:37.267Z,16.68
2018-05-03T17:10:06.772Z,16.63
2018-05-03T17:12:36.313Z,16.59
2018-05-03T17:15:06.253Z,16.56
2018-05-03T17:17:35.553Z,16.55
2018-05-03T17:20:04.511Z,16.60
2018-05-03T17:22:34.045Z,16.60
2018-05-03T17:25:03.583Z,16.61
2018-05-03T17:27:33.153Z,16.55
2018-05-03T17:30:03.077Z,16.53
2018-05-03T17:32:32.783Z,16.47
2018-05-03T17:35:02.319Z,16.31
2018-05-03T17:37:31.888Z,16.23
2018-05-03T17:40:01.796Z,16.10
2018-05-03T17:42:31.770Z,16.02
2018-05-03T17:45:01.279Z,15.96
2018-05-03T17:47:30.998Z,15.89
2018-05-03T17:50:00.534Z,15.85
2018-05-03T17:52:30.247Z,15.80
2018-05-03T17:55:00.266Z,15.79
2018-05-03T17:57:30.226Z,15.71
2018-05-03T17:59:59.761Z,15.62
2018-05-03T18:02:29.293Z,15.62
2018-05-03T18:04:59.204Z,15.63
2018-05-03T18:07:28.942Z,15.64
2018-05-03T18:09:58.491Z,15.54
2018-05-03T18:12:28.040Z,15.51
2018-05-03T18:14:57.568Z,15.48
2018-05-03T18:17:27.143Z,15.46
2018-05-03T18:19:56.690Z,15.47
2018-05-03T18:22:26.215Z,15.44
2018-05-03T18:24:55.786Z,15.40
2018-05-03T18:27:25.981Z,15.41
2018-05-03T18:29:55.689Z,15.39
2018-05-03T18:32:25.604Z,15.37
2018-05-03T18:34:55.585Z,15.38
2018-05-03T18:37:25.153Z,15.32
2018-05-03T18:39:54.657Z,15.27
2018-05-03T18:42:24.248Z,15.32
2018-05-03T18:44:54.171Z,15.30
2018-05-03T18:47:24.094Z,15.29
2018-05-03T18:49:53.674Z,15.27
2018-05-03T18:52:23.369Z,15.33
2018-05-03T18:54:52.698Z,15.32
2018-05-03T18:57:22.616Z,15.27
2018-05-03T18:59:52.828Z,15.28
2018-05-03T19:02:22.809Z,15.27
2018-05-03T19:04:52.356Z,15.27
2018-05-03T19:07:22.308Z,15.24
2018-05-03T19:09:51.872Z,15.23
2018-05-03T19:12:21.882Z,15.27
2018-05-03T19:14:51.404Z,15.25
2018-05-03T19:17:21.338Z,15.25
2018-05-03T19:19:51.132Z,15.27
2018-05-03T19:22:20.894Z,15.24
2018-05-03T19:24:50.476Z,15.22
2018-05-03T19:27:20.004Z,15.26
2018-05-03T19:29:49.538Z,15.22
2018-05-03T19:32:19.110Z,15.21
2018-05-03T19:34:48.661Z,15.23
2018-05-03T19:37:18.196Z,15.28
2018-05-03T19:39:47.715Z,15.33
2018-05-03T19:42:16.938Z,15.37
2018-05-03T19:44:46.465Z,15.36
2018-05-03T19:47:16.029Z,15.41
2018-05-03T19:49:45.564Z,15.38
2018-05-03T19:52:15.096Z,15.47
2018-05-03T19:54:45.048Z,15.46
2018-05-03T19:57:14.589Z,15.43
2018-05-03T19:59:43.912Z,15.57
2018-05-03T20:02:13.432Z,15.52
2018-05-03T20:04:43.405Z,15.46
2018-05-03T20:07:12.946Z,15.39
2018-05-03T20:09:42.553Z,15.36
2018-05-03T20:12:12.188Z,15.31
2018-05-03T20:14:42.768Z,15.27
2018-05-03T20:17:12.316Z,15.24
2018-05-03T20:19:42.250Z,15.15
2018-05-03T20:22:11.765Z,15.21
2018-05-03T20:24:41.318Z,15.22
2018-05-03T20:27:10.849Z,15.23
2018-05-03T20:29:40.791Z,15.27
2018-05-03T20:32:10.319Z,15.28
2018-05-03T20:34:39.846Z,15.27
2018-05-03T20:37:09.378Z,15.28
2018-05-03T20:39:39.347Z,15.23
2018-05-03T20:42:08.878Z,15.25
2018-05-03T20:44:38.422Z,15.28
2018-05-03T20:47:08.346Z,15.33
2018-05-03T20:49:37.900Z,15.32
2018-05-03T20:52:07.969Z,15.36
2018-05-03T20:54:38.010Z,15.44
2018-05-03T20:57:07.560Z,15.39
2018-05-03T20:59:37.610Z,15.34
2018-05-03T21:02:07.530Z,15.30
2018-05-03T21:04:38.020Z,15.26
2018-05-03T21:07:07.581Z,15.20
2018-05-03T21:09:37.720Z,15.23
2018-05-03T21:12:07.270Z,15.19
2018-05-03T21:14:36.952Z,15.20
2018-05-03T21:17:06.504Z,15.05
2018-05-03T21:19:36.040Z,15.04
2018-05-03T21:22:05.640Z,15.07
2018-05-03T21:24:35.902Z,15.11
2018-05-03T21:27:05.462Z,15.15
2018-05-03T21:29:35.075Z,15.12
2018-05-03T21:32:04.588Z,15.03
2018-05-03T21:34:34.127Z,15.12
2018-05-03T21:37:03.691Z,15.17
2018-05-03T21:39:33.209Z,15.19
2018-05-03T21:42:02.840Z,15.26
2018-05-03T21:44:32.369Z,15.25
2018-05-03T21:47:01.776Z,15.23
2018-05-03T21:49:31.326Z,15.40
2018-05-03T21:52:00.852Z,15.35
2018-05-03T21:54:30.409Z,15.33
2018-05-03T21:57:00.340Z,15.24
2018-05-03T21:59:30.932Z,15.19
2018-05-03T22:02:00.474Z,15.14
2018-05-03T22:04:30.185Z,15.15
2018-05-03T22:06:59.839Z,15.12
2018-05-03T22:09:29.480Z,15.13
2018-05-03T22:11:59.011Z,15.24
2018-05-03T22:14:29.012Z,15.29
2018-05-03T22:16:58.973Z,15.25
2018-05-03T22:19:28.489Z,15.23
2018-05-03T22:21:58.081Z,15.39
2018-05-03T22:24:27.434Z,15.25
2018-05-03T22:26:57.056Z,15.13
2018-05-03T22:29:26.970Z,15.01
2018-05-03T22:31:56.874Z,14.93
2018-05-03T22:34:26.171Z,14.84
2018-05-03T22:36:55.704Z,14.87
2018-05-03T22:39:25.626Z,14.79
2018-05-03T22:41:55.361Z,14.78
2018-05-03T22:44:24.867Z,14.73
2018-05-03T22:46:54.390Z,14.78
2018-05-03T22:49:24.863Z,14.88
2018-05-03T22:51:54.495Z,14.91
2018-05-03T22:54:24.750Z,14.77
2018-05-03T22:56:55.028Z,14.58
2018-05-03T22:59:25.757Z,14.52
2018-05-03T23:01:55.760Z,14.56
2018-05-03T23:04:25.315Z,14.59
2018-05-03T23:06:54.837Z,14.62
2018-05-03T23:09:24.408Z,14.59
2018-05-03T23:11:53.931Z,14.60
2018-05-03T23:14:23.338Z,14.58
2018-05-03T23:16:53.085Z,14.57
2018-05-03T23:19:23.494Z,14.56
2018-05-03T23:21:53.069Z,14.52
2018-05-03T23:24:22.642Z,14.55
2018-05-03T23:26:52.568Z,14.54
2018-05-03T23:29:22.590Z,14.46
2018-05-03T23:31:52.520Z,14.44
2018-05-03T23:34:22.048Z,14.49
2018-05-03T23:36:51.580Z,14.47
2018-05-03T23:39:21.324Z,14.38
2018-05-03T23:41:51.268Z,14.32
2018-05-03T23:44:21.584Z,14.30
2018-05-03T23:46:51.174Z,14.29
2018-05-03T23:49:21.388Z,14.30
2018-05-03T23:51:51.376Z,14.36
2018-05-03T23:54:20.911Z,14.42
2018-05-03T23:56:50.980Z,14.38
2018-05-03T23:59:20.612Z,14.42
